createdAt,value
2022-10-07T00:00:40.593Z,16.30
2022-10-07T00:03:32.127Z,16.30
2022-10-07T00:09:17.868Z,16.20
2022-10-07T00:12:09.079Z,16.40
2022-10-07T00:15:00.355Z,16.30
2022-10-07T00:17:51.720Z,16.20
2022-10-07T00:20:43.543Z,16.20
2022-10-07T00:26:27.465Z,16.10
2022-10-07T00:29:18.725Z,16.00
2022-10-07T00:32:10.249Z,16.00
2022-10-07T00:35:01.348Z,16.00
2022-10-07T00:37:52.803Z,16.10
2022-10-07T00:46:34.299Z,16.00
2022-10-07T00:49:26.290Z,15.90
2022-10-07T00:52:20.476Z,15.90
2022-10-07T00:55:15.574Z,15.80
2022-10-07T00:58:08.936Z,15.80
2022-10-07T01:06:36.062Z,15.50
2022-10-07T01:09:27.352Z,15.50
2022-10-07T01:12:23.440Z,15.50
2022-10-07T01:18:12.620Z,15.60
2022-10-07T01:21:07.676Z,15.50
2022-10-07T01:24:05.847Z,15.40
2022-10-07T01:27:02.103Z,15.40
2022-10-07T01:29:56.957Z,15.40
2022-10-07T01:32:53.230Z,15.40
2022-10-07T01:35:48.088Z,15.40
2022-10-07T01:38:42.381Z,15.40
2022-10-07T01:44:26.172Z,15.40
2022-10-07T01:47:17.476Z,15.40
2022-10-07T01:50:14.718Z,15.40
2022-10-07T01:56:09.494Z,15.40
2022-10-07T01:59:08.653Z,15.40
2022-10-07T02:04:59.257Z,15.40
2022-10-07T02:10:44.020Z,15.40
2022-10-07T02:16:35.069Z,15.50
2022-10-07T02:19:29.941Z,15.80
2022-10-07T02:25:12.571Z,15.50
2022-10-07T02:28:07.360Z,15.40
2022-10-07T02:33:51.757Z,15.40
2022-10-07T02:39:35.881Z,15.40
2022-10-07T02:42:31.212Z,15.30
2022-10-07T02:45:28.446Z,15.30
2022-10-07T02:48:23.161Z,15.20
2022-10-07T02:51:20.954Z,15.10
2022-10-07T02:54:12.760Z,15.10
2022-10-07T02:57:05.952Z,15.10
2022-10-07T03:00:01.184Z,15.10
2022-10-07T03:02:57.545Z,15.00
2022-10-07T03:05:53.051Z,15.00
2022-10-07T03:08:45.217Z,15.00
2022-10-07T03:14:15.135Z,14.90
2022-10-07T03:19:49.921Z,14.90
2022-10-07T03:22:42.467Z,14.90
2022-10-07T03:25:33.857Z,15.00
2022-10-07T03:28:27.125Z,15.00
2022-10-07T03:31:19.522Z,15.00
2022-10-07T03:34:13.269Z,15.00
2022-10-07T03:39:44.044Z,15.00
2022-10-07T03:42:35.678Z,15.00
2022-10-07T03:45:29.653Z,15.00
2022-10-07T03:48:21.455Z,15.00
2022-10-07T03:51:12.751Z,15.10
2022-10-07T03:54:06.217Z,15.10
2022-10-07T03:59:36.304Z,15.20
2022-10-07T04:05:09.294Z,15.20
2022-10-07T04:08:00.637Z,15.20
2022-10-07T04:10:51.957Z,15.20
2022-10-07T04:13:43.666Z,15.30
2022-10-07T04:16:38.191Z,15.30
2022-10-07T04:19:30.748Z,15.30
2022-10-07T04:25:40.692Z,15.40
2022-10-07T04:28:33.420Z,15.40
2022-10-07T04:34:07.818Z,15.50
2022-10-07T04:39:59.677Z,15.40
2022-10-07T04:42:51.667Z,15.50
2022-10-07T04:45:43.469Z,15.50
2022-10-07T04:48:36.137Z,15.50
2022-10-07T04:51:28.478Z,15.50
2022-10-07T04:54:21.245Z,15.50
2022-10-07T04:57:14.615Z,15.60
2022-10-07T05:00:08.467Z,15.50
2022-10-07T05:03:00.003Z,15.50
2022-10-07T05:05:53.374Z,15.40
2022-10-07T05:08:45.951Z,15.40
2022-10-07T05:14:19.303Z,15.50
2022-10-07T05:19:59.585Z,15.50
2022-10-07T05:22:51.468Z,15.50
2022-10-07T05:28:28.026Z,15.60
2022-10-07T05:31:20.691Z,15.80
2022-10-07T05:34:13.778Z,15.70
2022-10-07T05:39:54.905Z,15.50
2022-10-07T05:42:47.277Z,15.50
2022-10-07T05:45:38.706Z,15.40
2022-10-07T05:48:33.245Z,15.40
2022-10-07T05:51:27.248Z,15.40
2022-10-07T05:57:03.073Z,15.40
2022-10-07T05:59:56.591Z,15.40
2022-10-07T06:05:40.253Z,15.40
2022-10-07T06:08:32.225Z,15.40
2022-10-07T06:11:41.953Z,15.40
2022-10-07T06:14:34.333Z,15.40
2022-10-07T06:17:26.260Z,15.40
2022-10-07T06:20:19.640Z,15.50
2022-10-07T06:23:11.986Z,15.60
2022-10-07T06:26:06.477Z,15.60
2022-10-07T06:28:58.024Z,15.50
2022-10-07T06:34:28.887Z,15.60
2022-10-07T06:37:20.767Z,15.60
2022-10-07T06:40:14.826Z,15.70
2022-10-07T06:43:07.038Z,15.70
2022-10-07T06:46:04.665Z,15.70
2022-10-07T06:48:57.176Z,15.70
2022-10-07T06:51:49.354Z,15.80
2022-10-07T06:54:41.416Z,15.90
2022-10-07T07:00:26.098Z,15.90
2022-10-07T07:03:18.904Z,16.00
2022-10-07T07:06:11.892Z,16.00
2022-10-07T07:11:48.290Z,16.00
2022-10-07T07:14:43.241Z,16.00
2022-10-07T07:17:36.269Z,16.00
2022-10-07T07:20:29.024Z,16.10
2022-10-07T07:23:20.509Z,16.20
2022-10-07T07:26:11.803Z,16.30
2022-10-07T07:35:19.011Z,16.50
2022-10-07T07:40:51.123Z,16.70
2022-10-07T07:43:43.144Z,16.70
2022-10-07T07:46:38.654Z,16.80
2022-10-07T07:49:31.459Z,16.90
2022-10-07T07:55:12.042Z,17.00
2022-10-07T07:58:07.327Z,17.00
2022-10-07T08:03:52.064Z,17.10
2022-10-07T08:09:37.664Z,17.30
2022-10-07T08:15:17.920Z,17.20
2022-10-07T08:20:59.546Z,17.20
2022-10-07T08:23:55.419Z,17.20
2022-10-07T08:29:40.798Z,17.40
2022-10-07T08:32:33.879Z,17.50
2022-10-07T08:35:25.715Z,17.50
2022-10-07T08:38:17.288Z,17.60
2022-10-07T08:41:18.266Z,17.60
2022-10-07T08:44:21.768Z,17.70
2022-10-07T08:50:07.979Z,17.80
2022-10-07T08:53:03.217Z,17.80
2022-10-07T08:55:57.787Z,17.90
2022-10-07T09:04:43.047Z,18.10
2022-10-07T09:10:32.902Z,18.20
2022-10-07T09:13:28.374Z,18.30
2022-10-07T09:16:34.295Z,18.30
2022-10-07T09:19:30.899Z,18.40
2022-10-07T09:22:25.192Z,18.40
2022-10-07T09:25:23.398Z,18.40
2022-10-07T09:28:17.369Z,18.40
2022-10-07T09:31:11.444Z,18.50
2022-10-07T09:34:02.971Z,18.50
2022-10-07T09:37:23.296Z,18.60
2022-10-07T09:40:33.284Z,18.70
2022-10-07T09:43:25.036Z,18.80
2022-10-07T09:46:27.847Z,18.90
2022-10-07T09:49:35.088Z,19.00
2022-10-07T09:55:32.042Z,19.20
2022-10-07T09:58:28.015Z,19.30
2022-10-07T10:01:19.663Z,19.40
2022-10-07T10:04:17.659Z,19.60
2022-10-07T10:10:10.589Z,19.90
2022-10-07T10:13:04.002Z,20.00
2022-10-07T10:15:57.894Z,20.00
2022-10-07T10:18:55.806Z,20.10
2022-10-07T10:21:50.378Z,20.20
2022-10-07T10:24:59.442Z,20.30
2022-10-07T10:27:57.402Z,20.40
2022-10-07T10:30:52.416Z,20.40
2022-10-07T10:36:27.349Z,20.60
2022-10-07T10:39:22.090Z,20.70
2022-10-07T10:42:16.593Z,20.70
2022-10-07T10:45:16.070Z,20.80
2022-10-07T10:48:17.413Z,20.80
2022-10-07T10:51:14.520Z,20.80
2022-10-07T10:54:15.819Z,20.80
2022-10-07T10:57:13.059Z,20.90
2022-10-07T11:03:16.599Z,21.10
2022-10-07T11:06:11.037Z,21.10
2022-10-07T11:09:03.496Z,21.00
2022-10-07T11:11:55.202Z,21.00
2022-10-07T11:14:51.196Z,21.10
2022-10-07T11:17:43.801Z,21.10
2022-10-07T11:20:43.734Z,21.10
2022-10-07T11:23:35.941Z,21.00
2022-10-07T11:26:34.713Z,21.10
2022-10-07T11:29:27.221Z,20.90
2022-10-07T11:32:21.859Z,21.00
2022-10-07T11:35:24.268Z,20.90
2022-10-07T11:41:11.321Z,21.00
2022-10-07T11:44:06.404Z,20.90
2022-10-07T11:49:54.369Z,21.20
2022-10-07T11:52:48.711Z,21.30
2022-10-07T11:55:44.282Z,21.30
2022-10-07T11:58:37.884Z,21.30
2022-10-07T12:01:57.681Z,21.20
2022-10-07T12:04:49.344Z,21.30
2022-10-07T12:08:01.457Z,21.30
2022-10-07T12:10:55.993Z,21.30
2022-10-07T12:13:49.698Z,21.30
2022-10-07T12:16:55.502Z,21.30
2022-10-07T12:19:46.484Z,21.40
2022-10-07T12:22:38.373Z,21.30
2022-10-07T12:25:33.014Z,21.40
2022-10-07T12:28:28.530Z,21.50
2022-10-07T12:31:48.998Z,21.70
2022-10-07T12:34:44.318Z,21.80
2022-10-07T12:37:50.510Z,21.90
2022-10-07T12:40:42.909Z,21.90
2022-10-07T12:46:29.769Z,22.10
2022-10-07T12:49:24.264Z,22.30
2022-10-07T12:52:20.285Z,22.30
2022-10-07T12:55:15.836Z,22.40
2022-10-07T12:58:28.654Z,22.40
2022-10-07T13:01:23.586Z,22.40
2022-10-07T13:04:31.647Z,22.30
2022-10-07T13:08:07.538Z,22.30
2022-10-07T13:11:16.628Z,22.20
2022-10-07T13:14:12.303Z,22.40
2022-10-07T13:17:06.995Z,22.40
2022-10-07T13:20:10.198Z,22.50
2022-10-07T13:23:06.079Z,22.60
2022-10-07T13:25:59.772Z,22.50
2022-10-07T13:28:53.097Z,22.60
2022-10-07T13:31:46.213Z,22.60
2022-10-07T13:34:37.919Z,22.50
2022-10-07T13:37:32.236Z,22.60
2022-10-07T13:40:28.381Z,22.60
2022-10-07T13:43:20.621Z,22.60
2022-10-07T13:46:13.152Z,22.60
2022-10-07T13:49:06.199Z,22.70
2022-10-07T13:52:00.967Z,22.60
2022-10-07T13:54:56.026Z,22.60
2022-10-07T13:57:48.172Z,22.60
2022-10-07T14:00:44.131Z,22.60
2022-10-07T14:03:35.849Z,22.60
2022-10-07T14:06:48.767Z,22.70
2022-10-07T14:09:47.437Z,22.90
2022-10-07T14:12:42.140Z,23.30
2022-10-07T14:15:35.525Z,24.10
2022-10-07T14:18:29.792Z,24.50
2022-10-07T14:21:26.408Z,25.00
2022-10-07T14:24:21.038Z,25.20
2022-10-07T14:27:45.645Z,24.80
2022-10-07T14:30:57.522Z,25.10
2022-10-07T14:34:09.327Z,25.00
2022-10-07T14:37:09.152Z,25.10
2022-10-07T14:40:00.451Z,24.30
2022-10-07T14:42:53.471Z,23.90
2022-10-07T14:45:45.020Z,23.80
2022-10-07T14:48:36.762Z,23.60
2022-10-07T14:54:19.305Z,23.20
2022-10-07T14:57:11.784Z,23.20
2022-10-07T15:00:03.952Z,23.10
2022-10-07T15:02:56.799Z,23.20
2022-10-07T15:05:48.939Z,23.30
2022-10-07T15:08:40.678Z,23.10
2022-10-07T15:11:32.433Z,23.10
2022-10-07T15:14:23.880Z,23.10
2022-10-07T15:17:15.832Z,23.20
2022-10-07T15:20:09.264Z,24.00
2022-10-07T15:23:00.845Z,25.00
2022-10-07T15:25:53.852Z,25.60
2022-10-07T15:28:45.187Z,25.50
2022-10-07T15:31:38.247Z,24.60
2022-10-07T15:34:29.565Z,24.70
2022-10-07T15:37:21.641Z,25.00
2022-10-07T15:40:14.937Z,25.00
2022-10-07T15:43:10.937Z,25.10
2022-10-07T15:46:03.933Z,25.20
2022-10-07T15:48:57.717Z,25.50
2022-10-07T15:51:50.091Z,25.60
2022-10-07T15:54:41.988Z,24.90
2022-10-07T15:57:34.074Z,23.90
2022-10-07T16:00:26.194Z,23.50
2022-10-07T16:03:18.091Z,23.00
2022-10-07T16:06:13.541Z,22.80
2022-10-07T16:09:05.527Z,22.70
2022-10-07T16:11:56.910Z,22.70
2022-10-07T16:14:49.367Z,22.50
2022-10-07T16:17:40.955Z,22.50
2022-10-07T16:20:32.600Z,22.40
2022-10-07T16:23:24.638Z,22.30
2022-10-07T16:26:18.035Z,22.20
2022-10-07T16:32:01.034Z,22.00
2022-10-07T16:34:52.826Z,21.90
2022-10-07T16:37:47.786Z,21.80
2022-10-07T16:40:38.588Z,21.70
2022-10-07T16:43:30.575Z,21.60
2022-10-07T16:46:23.577Z,21.50
2022-10-07T16:49:17.074Z,21.40
2022-10-07T16:52:09.967Z,21.40
2022-10-07T16:55:01.824Z,21.40
2022-10-07T16:57:54.044Z,21.30
2022-10-07T17:00:45.552Z,21.30
2022-10-07T17:03:38.278Z,21.30
2022-10-07T17:06:31.564Z,21.20
2022-10-07T17:09:24.993Z,21.10
2022-10-07T17:12:16.462Z,21.00
2022-10-07T17:15:11.932Z,21.00
2022-10-07T17:20:45.025Z,20.90
2022-10-07T17:23:36.548Z,20.90
2022-10-07T17:26:28.829Z,20.90
2022-10-07T17:29:22.277Z,20.90
2022-10-07T17:32:14.710Z,20.70
2022-10-07T17:35:08.426Z,20.60
2022-10-07T17:38:00.290Z,20.50
2022-10-07T17:40:51.842Z,20.50
2022-10-07T17:43:43.113Z,20.40
2022-10-07T17:46:36.829Z,20.40
2022-10-07T17:49:28.829Z,20.40
2022-10-07T17:52:36.306Z,20.30
2022-10-07T17:55:27.871Z,20.30
2022-10-07T17:58:20.361Z,20.20
2022-10-07T18:01:17.227Z,20.10
2022-10-07T18:04:13.071Z,20.10
2022-10-07T18:07:04.562Z,20.10
2022-10-07T18:09:56.224Z,20.10
2022-10-07T18:13:05.504Z,20.20
2022-10-07T18:16:01.097Z,20.20
2022-10-07T18:18:56.817Z,20.10
2022-10-07T18:21:48.927Z,20.10
2022-10-07T18:24:40.495Z,20.10
2022-10-07T18:27:32.558Z,20.10
2022-10-07T18:30:24.115Z,20.10
2022-10-07T18:33:15.645Z,20.10
2022-10-07T18:36:09.636Z,20.10
2022-10-07T18:39:01.239Z,20.10
2022-10-07T18:41:52.736Z,20.10
2022-10-07T18:44:44.194Z,20.00
2022-10-07T18:47:35.819Z,19.90
2022-10-07T18:50:32.690Z,19.90
2022-10-07T18:53:20.622Z,19.90
2022-10-07T18:56:14.674Z,19.90
2022-10-07T18:59:07.172Z,19.70
2022-10-07T19:01:58.702Z,19.70
2022-10-07T19:04:50.010Z,19.70
2022-10-07T19:07:41.469Z,19.70
2022-10-07T19:10:33.048Z,19.80
2022-10-07T19:13:42.481Z,19.80
2022-10-07T19:16:36.500Z,19.90
2022-10-07T19:19:29.716Z,19.90
2022-10-07T19:22:20.996Z,19.90
2022-10-07T19:25:30.650Z,19.90
2022-10-07T19:28:22.454Z,19.90
2022-10-07T19:31:16.090Z,19.90
2022-10-07T19:34:09.842Z,19.90
2022-10-07T19:37:01.252Z,19.80
2022-10-07T19:39:52.863Z,19.80
2022-10-07T19:42:44.254Z,19.80
2022-10-07T19:45:36.251Z,19.80
2022-10-07T19:48:28.148Z,19.80
2022-10-07T19:51:21.222Z,19.70
2022-10-07T19:54:13.439Z,19.70
2022-10-07T19:57:05.075Z,19.70
2022-10-07T19:59:56.405Z,19.60
2022-10-07T20:02:49.586Z,19.60
2022-10-07T20:05:41.050Z,19.60
2022-10-07T20:08:33.156Z,19.60
2022-10-07T20:11:24.712Z,19.60
2022-10-07T20:14:16.377Z,19.60
2022-10-07T20:17:08.111Z,19.60
2022-10-07T20:19:59.881Z,19.50
2022-10-07T20:22:51.349Z,19.50
2022-10-07T20:25:42.695Z,19.50
2022-10-07T20:28:35.342Z,19.40
2022-10-07T20:31:29.737Z,19.40
2022-10-07T20:34:21.390Z,19.40
2022-10-07T20:37:12.920Z,19.30
2022-10-07T20:40:22.334Z,19.40
2022-10-07T20:43:14.039Z,19.30
2022-10-07T20:46:05.758Z,19.40
2022-10-07T20:48:57.357Z,19.30
2022-10-07T20:51:48.886Z,19.30
2022-10-07T20:54:40.595Z,19.30
2022-10-07T20:57:35.907Z,19.30
2022-10-07T21:00:27.092Z,19.30
2022-10-07T21:03:18.576Z,19.30
2022-10-07T21:06:11.170Z,19.20
2022-10-07T21:09:02.974Z,19.20
2022-10-07T21:11:56.219Z,19.20
2022-10-07T21:14:48.634Z,19.20
2022-10-07T21:17:41.262Z,19.10
2022-10-07T21:20:32.395Z,19.10
2022-10-07T21:23:25.008Z,19.00
2022-10-07T21:26:16.383Z,19.00
2022-10-07T21:29:09.140Z,18.90
2022-10-07T21:32:01.561Z,18.90
2022-10-07T21:34:53.883Z,19.00
2022-10-07T21:37:46.432Z,18.90
2022-10-07T21:40:38.154Z,19.00
2022-10-07T21:43:29.980Z,18.90
2022-10-07T21:46:25.050Z,18.90
2022-10-07T21:49:17.144Z,18.90
2022-10-07T21:52:08.595Z,18.90
2022-10-07T21:55:01.977Z,18.80
2022-10-07T21:57:53.507Z,18.80
2022-10-07T22:00:44.828Z,18.80
2022-10-07T22:03:36.845Z,18.80
2022-10-07T22:06:47.026Z,18.80
2022-10-07T22:09:41.327Z,18.80
2022-10-07T22:12:34.384Z,18.80
2022-10-07T22:15:26.371Z,18.80
2022-10-07T22:18:18.477Z,18.80
2022-10-07T22:21:14.764Z,18.80
2022-10-07T22:24:08.704Z,18.80
2022-10-07T22:27:00.353Z,18.80
2022-10-07T22:29:51.890Z,18.80
2022-10-07T22:32:46.493Z,18.80
2022-10-07T22:35:41.058Z,18.70
2022-10-07T22:38:32.810Z,18.70
2022-10-07T22:41:25.369Z,18.70
2022-10-07T22:44:17.177Z,18.70
2022-10-07T22:47:08.788Z,18.60
2022-10-07T22:50:00.476Z,18.60
2022-10-07T22:52:53.193Z,18.50
2022-10-07T22:55:45.496Z,18.60
2022-10-07T22:58:37.188Z,18.50
2022-10-07T23:01:33.032Z,18.50
2022-10-07T23:04:24.366Z,18.50
2022-10-07T23:07:16.005Z,18.40
2022-10-07T23:10:09.620Z,18.40
2022-10-07T23:13:04.274Z,18.40
2022-10-07T23:16:00.917Z,18.40
2022-10-07T23:18:53.729Z,18.40
2022-10-07T23:21:45.643Z,18.40
2022-10-07T23:24:37.389Z,18.40
2022-10-07T23:27:29.053Z,18.30
2022-10-07T23:30:21.067Z,18.30
2022-10-07T23:33:14.075Z,18.20
2022-10-07T23:36:08.961Z,18.20
2022-10-07T23:39:02.050Z,18.20
2022-10-07T23:41:53.897Z,18.20
2022-10-07T23:44:45.854Z,18.20
2022-10-07T23:47:37.572Z,18.30
2022-10-07T23:50:29.209Z,18.40
2022-10-07T23:53:22.676Z,18.40
2022-10-07T23:56:14.374Z,18.40
2022-10-07T23:59:05.787Z,18.30
